createdAt,value
2023-05-07T00:02:09.753Z,35.20
2023-05-07T00:05:14.944Z,33.20
2023-05-07T00:08:17.220Z,36.00
2023-05-07T00:11:29.052Z,33.30
2023-05-07T00:14:39.830Z,30.30
2023-05-07T00:17:41.705Z,31.20
2023-05-07T00:20:43.520Z,34.50
2023-05-07T00:23:55.342Z,30.40
2023-05-07T00:26:57.452Z,29.70
2023-05-07T00:30:10.052Z,31.20
2023-05-07T00:33:17.396Z,30.30
2023-05-07T00:36:19.188Z,29.50
2023-05-07T00:39:23.393Z,27.70
2023-05-07T00:42:25.504Z,28.10
2023-05-07T00:45:41.467Z,28.60
2023-05-07T00:48:43.682Z,28.20
2023-05-07T00:51:48.695Z,30.30
2023-05-07T00:55:05.824Z,26.20
2023-05-07T00:58:25.090Z,28.90
2023-05-07T01:01:38.043Z,26.20
2023-05-07T01:05:00.998Z,29.90
2023-05-07T01:08:18.973Z,28.80
2023-05-07T01:11:28.824Z,27.60
2023-05-07T01:14:41.942Z,29.20
2023-05-07T01:17:49.947Z,29.00
2023-05-07T01:20:55.670Z,30.00
2023-05-07T01:24:08.157Z,29.30
2023-05-07T01:27:15.861Z,26.80
2023-05-07T01:30:22.028Z,29.50
2023-05-07T01:33:34.180Z,30.90
2023-05-07T01:36:40.052Z,27.30
2023-05-07T01:39:43.399Z,28.40
2023-05-07T01:42:48.362Z,29.00
2023-05-07T01:46:10.574Z,28.10
2023-05-07T01:49:16.306Z,27.50
2023-05-07T01:52:18.125Z,28.60
2023-05-07T01:55:20.073Z,30.30
2023-05-07T01:58:30.945Z,31.10
2023-05-07T02:01:45.668Z,30.90
2023-05-07T02:04:48.147Z,32.70
2023-05-07T02:11:03.325Z,31.00
2023-05-07T02:14:05.384Z,32.00
2023-05-07T02:17:33.062Z,31.60
2023-05-07T02:21:07.081Z,33.50
2023-05-07T02:24:12.129Z,32.20
2023-05-07T02:27:14.237Z,32.20
2023-05-07T02:30:26.778Z,30.40
2023-05-07T02:33:31.023Z,28.50
2023-05-07T02:36:33.564Z,30.00
2023-05-07T02:39:41.485Z,28.10
2023-05-07T02:43:03.829Z,26.20
2023-05-07T02:46:16.086Z,25.70
2023-05-07T02:49:21.186Z,25.60
2023-05-07T02:52:45.491Z,26.20
2023-05-07T02:55:59.086Z,28.90
2023-05-07T02:59:09.620Z,25.50
2023-05-07T03:02:45.223Z,25.00
2023-05-07T03:05:51.534Z,26.20
2023-05-07T03:09:23.139Z,26.20
2023-05-07T03:12:34.218Z,24.80
2023-05-07T03:15:39.271Z,23.40
2023-05-07T03:19:07.919Z,22.30
2023-05-07T03:22:20.309Z,23.50
2023-05-07T03:25:33.617Z,20.00
2023-05-07T03:28:47.328Z,21.50
2023-05-07T03:31:49.374Z,18.70
2023-05-07T03:34:51.274Z,18.60
2023-05-07T03:37:53.499Z,21.30
2023-05-07T03:41:04.622Z,18.50
2023-05-07T03:44:06.713Z,19.70
2023-05-07T03:47:17.716Z,20.20
2023-05-07T03:50:39.114Z,17.00
2023-05-07T03:56:56.895Z,15.50
2023-05-07T04:00:02.163Z,19.30
2023-05-07T04:04:27.202Z,17.70
2023-05-07T04:07:29.383Z,18.40
2023-05-07T04:10:31.201Z,19.40
2023-05-07T04:13:33.308Z,19.30
2023-05-07T04:16:36.395Z,18.80
2023-05-07T04:19:38.374Z,19.60
2023-05-07T04:22:50.277Z,19.70
2023-05-07T04:25:52.514Z,18.60
2023-05-07T04:28:57.086Z,20.10
2023-05-07T04:32:10.616Z,18.10
2023-05-07T04:35:12.982Z,16.90
2023-05-07T04:38:17.819Z,18.90
2023-05-07T04:41:39.997Z,18.10
2023-05-07T04:44:41.732Z,12.90
2023-05-07T04:47:46.656Z,17.70
2023-05-07T04:50:51.870Z,14.70
2023-05-07T04:53:59.685Z,19.00
2023-05-07T04:57:01.611Z,14.10
2023-05-07T05:00:04.137Z,14.70
2023-05-07T05:03:09.554Z,15.00
2023-05-07T05:06:12.136Z,16.50
2023-05-07T05:09:14.355Z,19.50
2023-05-07T05:12:16.305Z,12.10
2023-05-07T05:15:20.713Z,18.20
2023-05-07T05:18:22.459Z,15.00
2023-05-07T05:21:26.744Z,13.60
2023-05-07T05:24:29.255Z,14.60
2023-05-07T05:27:40.222Z,17.40
2023-05-07T05:30:42.227Z,18.30
2023-05-07T05:34:01.794Z,18.00
2023-05-07T05:37:03.734Z,16.20
2023-05-07T05:40:06.817Z,13.90
2023-05-07T05:43:08.714Z,14.00
2023-05-07T05:46:16.079Z,12.10
2023-05-07T05:49:18.258Z,14.30
2023-05-07T05:52:43.699Z,15.60
2023-05-07T05:56:02.716Z,17.30
2023-05-07T05:59:07.184Z,15.40
2023-05-07T06:02:19.447Z,18.40
2023-05-07T06:05:33.959Z,16.40
2023-05-07T06:08:39.356Z,14.10
2023-05-07T06:11:44.243Z,15.30
2023-05-07T06:14:49.380Z,16.40
2023-05-07T06:17:54.913Z,15.60
2023-05-07T06:20:59.519Z,18.60
2023-05-07T06:24:16.229Z,16.20
2023-05-07T06:27:21.100Z,16.60
2023-05-07T06:30:32.242Z,14.70
2023-05-07T06:33:36.268Z,16.50
2023-05-07T06:37:07.997Z,16.50
2023-05-07T06:40:19.488Z,15.30
2023-05-07T06:43:27.360Z,11.40
2023-05-07T06:46:37.888Z,16.10
2023-05-07T06:50:09.337Z,14.40
2023-05-07T06:53:20.261Z,15.80
2023-05-07T06:56:29.926Z,19.00
2023-05-07T06:59:35.183Z,18.10
2023-05-07T07:02:39.588Z,15.30
2023-05-07T07:06:04.342Z,16.80
2023-05-07T07:09:09.396Z,15.30
2023-05-07T07:12:11.531Z,14.00
2023-05-07T07:15:17.759Z,18.10
2023-05-07T07:18:24.963Z,13.80
2023-05-07T07:21:29.965Z,13.80
2023-05-07T07:24:52.244Z,11.10
2023-05-07T07:27:58.167Z,15.60
2023-05-07T07:31:05.534Z,13.70
2023-05-07T07:34:32.643Z,19.00
2023-05-07T07:37:53.497Z,14.50
2023-05-07T07:41:09.060Z,15.30
2023-05-07T07:44:21.306Z,14.00
2023-05-07T07:47:23.189Z,30.10
2023-05-07T07:50:46.253Z,17.90
2023-05-07T07:54:38.188Z,15.70
2023-05-07T07:57:49.116Z,15.20
2023-05-07T08:01:14.276Z,19.00
2023-05-07T08:04:56.646Z,16.10
2023-05-07T08:08:09.618Z,23.30
2023-05-07T08:11:32.125Z,17.60
2023-05-07T08:14:43.290Z,28.60
2023-05-07T08:17:45.895Z,20.50
2023-05-07T08:21:24.982Z,21.40
2023-05-07T08:24:36.882Z,18.20
2023-05-07T08:27:56.367Z,19.10
2023-05-07T08:31:17.211Z,20.20
2023-05-07T08:34:28.208Z,21.90
2023-05-07T08:37:42.035Z,18.80
2023-05-07T08:40:47.114Z,20.90
2023-05-07T08:43:50.157Z,17.60
2023-05-07T08:46:54.943Z,14.30
2023-05-07T08:50:06.707Z,16.30
2023-05-07T08:53:20.995Z,14.60
2023-05-07T08:56:28.653Z,14.90
2023-05-07T08:59:38.622Z,17.70
2023-05-07T09:03:15.553Z,14.10
2023-05-07T09:06:20.394Z,23.00
2023-05-07T09:09:25.613Z,22.00
2023-05-07T09:12:30.669Z,18.20
2023-05-07T09:15:32.723Z,19.90
2023-05-07T09:18:34.516Z,23.30
2023-05-07T09:21:36.274Z,21.10
2023-05-07T09:24:38.639Z,24.80
2023-05-07T09:27:40.525Z,25.00
2023-05-07T09:30:42.161Z,20.40
2023-05-07T09:33:43.941Z,24.00
2023-05-07T09:36:46.206Z,17.90
2023-05-07T09:39:49.734Z,19.10
2023-05-07T09:42:51.702Z,16.80
2023-05-07T09:45:53.527Z,16.10
2023-05-07T09:48:58.605Z,16.60
2023-05-07T09:52:02.382Z,16.20
2023-05-07T09:55:04.228Z,17.40
2023-05-07T09:58:07.721Z,20.70
2023-05-07T10:01:11.736Z,24.90
2023-05-07T10:04:13.756Z,15.90
2023-05-07T10:07:15.660Z,15.60
2023-05-07T10:10:18.753Z,18.10
2023-05-07T10:13:20.807Z,20.70
2023-05-07T10:16:22.850Z,18.50
2023-05-07T10:19:25.216Z,17.00
2023-05-07T10:22:27.258Z,17.30
2023-05-07T10:25:33.042Z,18.60
2023-05-07T10:28:42.217Z,16.80
2023-05-07T10:31:44.001Z,16.60
2023-05-07T10:34:48.333Z,15.90
2023-05-07T10:37:50.331Z,16.80
2023-05-07T10:40:52.342Z,14.90
2023-05-07T10:43:53.991Z,19.00
2023-05-07T10:47:08.687Z,20.20
2023-05-07T10:50:10.234Z,16.20
2023-05-07T10:53:17.924Z,16.40
2023-05-07T10:56:19.651Z,17.80
2023-05-07T10:59:21.323Z,18.30
2023-05-07T11:02:23.114Z,17.00
2023-05-07T11:05:25.261Z,18.00
2023-05-07T11:08:27.067Z,17.70
2023-05-07T11:11:48.917Z,18.50
2023-05-07T11:14:50.591Z,17.50
2023-05-07T11:17:59.924Z,24.00
2023-05-07T11:21:01.780Z,17.40
2023-05-07T11:24:10.899Z,18.20
2023-05-07T11:27:12.741Z,16.00
2023-05-07T11:30:23.391Z,19.30
2023-05-07T11:33:25.044Z,20.50
2023-05-07T11:36:31.581Z,22.70
2023-05-07T11:39:33.877Z,19.10
2023-05-07T11:42:37.713Z,20.80
2023-05-07T11:45:39.455Z,27.50
2023-05-07T11:48:41.388Z,39.10
2023-05-07T11:51:43.119Z,30.50
2023-05-07T11:54:52.033Z,20.80
2023-05-07T11:57:53.679Z,18.60
2023-05-07T12:00:55.659Z,16.30
2023-05-07T12:03:57.423Z,19.70
2023-05-07T12:06:59.241Z,24.40
2023-05-07T12:10:00.964Z,28.10
2023-05-07T12:13:02.654Z,22.20
2023-05-07T12:16:05.655Z,19.20
2023-05-07T12:19:08.026Z,20.90
2023-05-07T12:22:09.934Z,26.70
2023-05-07T12:25:11.662Z,24.40
2023-05-07T12:28:14.817Z,22.00
2023-05-07T12:31:16.655Z,17.50
2023-05-07T12:34:18.421Z,15.80
2023-05-07T12:37:25.366Z,16.40
2023-05-07T12:40:38.153Z,18.10
2023-05-07T12:43:39.923Z,19.80
2023-05-07T12:46:41.720Z,17.90
2023-05-07T12:49:43.918Z,17.90
2023-05-07T12:52:47.233Z,18.20
2023-05-07T12:55:50.925Z,18.80
2023-05-07T12:58:52.709Z,19.40
2023-05-07T13:01:54.415Z,19.00
2023-05-07T13:04:56.125Z,15.90
2023-05-07T13:07:58.102Z,16.20
2023-05-07T13:11:01.070Z,18.70
2023-05-07T13:14:03.343Z,19.30
2023-05-07T13:17:05.021Z,18.90
2023-05-07T13:20:07.376Z,17.30
2023-05-07T13:23:09.035Z,18.10
2023-05-07T13:26:18.868Z,19.00
2023-05-07T13:29:27.857Z,18.30
2023-05-07T13:32:29.432Z,18.70
2023-05-07T13:35:31.198Z,18.50
2023-05-07T13:38:32.927Z,17.50
2023-05-07T13:41:34.625Z,19.20
2023-05-07T13:44:36.252Z,19.40
2023-05-07T13:47:40.131Z,28.40
2023-05-07T13:50:42.228Z,21.80
2023-05-07T13:53:43.957Z,20.80
2023-05-07T13:56:45.755Z,21.80
2023-05-07T13:59:47.336Z,21.10
2023-05-07T14:02:49.075Z,24.50
2023-05-07T14:05:50.758Z,22.00
2023-05-07T14:08:52.673Z,23.20
2023-05-07T14:11:54.739Z,32.90
2023-05-07T14:14:56.413Z,23.00
2023-05-07T14:17:58.207Z,20.40
2023-05-07T14:20:59.916Z,21.30
2023-05-07T14:24:01.554Z,22.70
2023-05-07T14:27:03.179Z,24.20
2023-05-07T14:30:05.479Z,21.10
2023-05-07T14:33:07.205Z,21.40
2023-05-07T14:36:08.955Z,26.70
2023-05-07T14:39:11.399Z,22.90
2023-05-07T14:42:14.024Z,23.90
2023-05-07T14:45:15.592Z,20.30
2023-05-07T14:48:20.982Z,24.00
2023-05-07T14:51:23.106Z,21.00
2023-05-07T14:54:24.804Z,22.20
2023-05-07T14:57:26.378Z,21.90
2023-05-07T15:00:27.987Z,19.20
2023-05-07T15:03:30.325Z,17.00
2023-05-07T15:06:32.926Z,20.70
2023-05-07T15:09:35.321Z,19.70
2023-05-07T15:12:37.023Z,19.40
2023-05-07T15:15:42.788Z,20.20
2023-05-07T15:18:44.509Z,20.10
2023-05-07T15:21:46.209Z,22.40
2023-05-07T15:24:47.909Z,19.00
2023-05-07T15:27:49.700Z,20.60
2023-05-07T15:30:51.506Z,18.90
2023-05-07T15:33:53.362Z,19.50
2023-05-07T15:36:56.290Z,19.30
2023-05-07T15:39:58.008Z,19.50
2023-05-07T15:42:59.650Z,21.90
2023-05-07T15:46:01.450Z,20.20
2023-05-07T15:49:03.876Z,20.50
2023-05-07T15:52:05.645Z,21.00
2023-05-07T15:55:08.285Z,20.10
2023-05-07T15:58:10.516Z,21.00
2023-05-07T16:01:12.106Z,20.60
2023-05-07T16:04:13.755Z,21.10
2023-05-07T16:07:15.396Z,24.90
2023-05-07T16:13:19.073Z,24.00
2023-05-07T16:16:21.110Z,22.90
2023-05-07T16:19:22.757Z,21.70
2023-05-07T16:22:24.908Z,23.10
2023-05-07T16:25:26.739Z,22.50
2023-05-07T16:28:28.312Z,22.00
2023-05-07T16:37:34.640Z,22.20
2023-05-07T16:40:38.857Z,24.10
2023-05-07T16:43:40.556Z,27.10
2023-05-07T16:46:42.310Z,27.20
2023-05-07T16:49:44.248Z,25.40
2023-05-07T16:52:45.844Z,26.10
2023-05-07T16:58:49.113Z,21.90
2023-05-07T17:01:54.426Z,23.50
2023-05-07T17:04:57.060Z,23.70
2023-05-07T17:07:59.038Z,23.90
2023-05-07T17:11:00.720Z,25.90
2023-05-07T17:14:04.835Z,24.90
2023-05-07T17:17:07.326Z,25.20
2023-05-07T17:26:16.203Z,36.00
2023-05-07T17:29:17.871Z,24.00
2023-05-07T17:32:19.568Z,23.40
2023-05-07T17:35:21.292Z,27.80
2023-05-07T17:38:23.117Z,25.80
2023-05-07T17:41:24.788Z,31.30
2023-05-07T17:44:26.455Z,23.40
2023-05-07T17:47:28.633Z,26.20
2023-05-07T17:50:30.360Z,27.90
2023-05-07T17:53:32.093Z,23.90
2023-05-07T17:56:33.898Z,22.60
2023-05-07T17:59:35.741Z,24.40
2023-05-07T18:02:37.512Z,24.20
2023-05-07T18:05:39.278Z,21.70
2023-05-07T18:08:40.928Z,21.80
2023-05-07T18:14:44.197Z,24.00
2023-05-07T18:17:45.856Z,24.10
2023-05-07T18:20:50.873Z,23.70
2023-05-07T18:23:52.707Z,24.60
2023-05-07T18:26:54.626Z,24.90
2023-05-07T18:29:56.591Z,24.90
2023-05-07T18:32:58.377Z,22.60
2023-05-07T18:36:00.102Z,24.40
2023-05-07T18:39:02.467Z,22.30
2023-05-07T18:42:04.293Z,22.70
2023-05-07T18:45:06.506Z,21.40
2023-05-07T18:48:08.257Z,23.80
2023-05-07T18:51:10.003Z,26.70
2023-05-07T18:54:11.674Z,23.70
2023-05-07T18:57:13.531Z,23.20
2023-05-07T19:00:16.116Z,23.00
2023-05-07T19:03:18.059Z,24.30
2023-05-07T19:06:19.662Z,27.90
2023-05-07T19:09:21.488Z,23.70
2023-05-07T19:12:23.556Z,23.80
2023-05-07T19:15:25.288Z,23.00
2023-05-07T19:18:27.001Z,27.70
2023-05-07T19:21:28.850Z,31.90
2023-05-07T19:27:32.555Z,23.20
2023-05-07T19:33:36.296Z,19.70
2023-05-07T19:36:37.959Z,23.20
2023-05-07T19:42:41.076Z,26.80
2023-05-07T19:48:44.557Z,21.50
2023-05-07T19:54:48.022Z,23.40
2023-05-07T19:57:49.776Z,21.70
2023-05-07T20:00:51.446Z,25.00
2023-05-07T20:06:54.801Z,31.80
2023-05-07T20:12:58.017Z,27.00
2023-05-07T20:16:00.926Z,27.20
2023-05-07T20:19:02.591Z,25.10
2023-05-07T20:25:06.302Z,24.90
2023-05-07T20:28:07.946Z,22.90
2023-05-07T20:31:09.832Z,22.50
2023-05-07T20:34:11.418Z,20.80
2023-05-07T20:40:17.708Z,22.80
2023-05-07T20:43:19.326Z,22.90
2023-05-07T20:49:22.945Z,22.60
2023-05-07T20:55:26.101Z,22.60
2023-05-07T21:01:29.974Z,21.10
2023-05-07T21:04:31.755Z,22.70
2023-05-07T21:07:33.354Z,22.40
2023-05-07T21:13:36.875Z,20.90
2023-05-07T21:16:38.653Z,22.20
2023-05-07T21:19:40.432Z,20.30
2023-05-07T21:22:42.041Z,19.90
2023-05-07T21:31:47.246Z,22.00
2023-05-07T21:34:48.887Z,20.50
2023-05-07T21:40:52.087Z,18.70
2023-05-07T21:43:54.180Z,20.00
2023-05-07T21:49:57.267Z,19.70
2023-05-07T21:56:00.476Z,19.60
2023-05-07T21:59:02.099Z,21.40
2023-05-07T22:02:04.116Z,21.20
2023-05-07T22:05:06.158Z,21.00
2023-05-07T22:08:07.747Z,19.20
2023-05-07T22:11:09.414Z,20.50
2023-05-07T22:14:11.389Z,21.20
2023-05-07T22:17:13.052Z,19.00
2023-05-07T22:23:16.877Z,22.80
2023-05-07T22:26:18.699Z,20.90
2023-05-07T22:29:20.369Z,21.90
2023-05-07T22:32:22.010Z,22.10
2023-05-07T22:35:23.660Z,21.20
2023-05-07T22:38:25.367Z,19.90
2023-05-07T22:44:29.291Z,20.60
2023-05-07T22:47:31.080Z,21.90
2023-05-07T22:50:39.460Z,20.80
2023-05-07T22:53:41.220Z,20.10
2023-05-07T22:56:42.900Z,20.10
2023-05-07T22:59:44.618Z,21.30
2023-05-07T23:02:46.453Z,20.20
2023-05-07T23:05:48.194Z,20.70
2023-05-07T23:08:49.985Z,20.60
2023-05-07T23:11:51.581Z,22.10
2023-05-07T23:17:54.905Z,19.10
2023-05-07T23:20:56.611Z,22.60
2023-05-07T23:24:13.212Z,21.00
2023-05-07T23:27:14.986Z,22.40
2023-05-07T23:30:16.945Z,18.90
2023-05-07T23:33:18.750Z,21.40
2023-05-07T23:36:20.489Z,19.40
2023-05-07T23:39:22.264Z,19.20
2023-05-07T23:42:23.980Z,20.90
2023-05-07T23:45:25.749Z,19.00
2023-05-07T23:48:27.380Z,19.80
2023-05-07T23:54:30.651Z,18.00
2023-05-07T23:57:32.302Z,18.40
